sensor_id;sensor_type;location;lat;lon;timestamp;P1;P2;P0
54869;PMS5003;40756;-37.950;145.008;2023-02-11T00:01:41;23;22;
54869;PMS5003;40756;-37.950;145.008;2023-02-11T00:04:10;34;31;
54869;PMS5003;40756;-37.950;145.008;2023-02-11T00:06:40;30;29;
54869;PMS5003;40756;-37.950;145.008;2023-02-11T00:09:10;30;29;
54869;PMS5003;40756;-37.950;145.008;2023-02-11T00:11:39;34;31;
54869;PMS5003;40756;-37.950;145.008;2023-02-11T00:14:09;35;34;
54869;PMS5003;40756;-37.950;145.008;2023-02-11T00:16:39;29;27;
54869;PMS5003;40756;-37.950;145.008;2023-02-11T00:19:08;24;23;
54869;PMS5003;40756;-37.950;145.008;2023-02-11T00:21:38;28;25;
54869;PMS5003;40756;-37.950;145.008;2023-02-11T00:24:09;32;32;
54869;PMS5003;40756;-37.950;145.008;2023-02-11T00:26:38;30;29;
54869;PMS5003;40756;-37.950;145.008;2023-02-11T00:29:09;33;32;
54869;PMS5003;40756;-37.950;145.008;2023-02-11T00:31:39;28;25;
54869;PMS5003;40756;-37.950;145.008;2023-02-11T00:34:08;21;20;
54869;PMS5003;40756;-37.950;145.008;2023-02-11T00:36:38;23;21;
54869;PMS5003;40756;-37.950;145.008;2023-02-11T00:39:08;23;21;
54869;PMS5003;40756;-37.950;145.008;2023-02-11T00:41:37;21;21;
54869;PMS5003;40756;-37.950;145.008;2023-02-11T00:44:07;27;25;
54869;PMS5003;40756;-37.950;145.008;2023-02-11T00:46:36;22;21;
54869;PMS5003;40756;-37.950;145.008;2023-02-11T00:49:06;24;23;
54869;PMS5003;40756;-37.950;145.008;2023-02-11T00:51:36;19;18;
54869;PMS5003;40756;-37.950;145.008;2023-02-11T00:54:06;18;18;
54869;PMS5003;40756;-37.950;145.008;2023-02-11T00:56:35;23;20;
54869;PMS5003;40756;-37.950;145.008;2023-02-11T00:59:04;21;18;
54869;PMS5003;40756;-37.950;145.008;2023-02-11T01:01:33;18;18;
54869;PMS5003;40756;-37.950;145.008;2023-02-11T01:04:04;20;19;
54869;PMS5003;40756;-37.950;145.008;2023-02-11T01:06:34;22;20;
54869;PMS5003;40756;-37.950;145.008;2023-02-11T01:09:03;20;20;
54869;PMS5003;40756;-37.950;145.008;2023-02-11T01:11:32;22;20;
54869;PMS5003;40756;-37.950;145.008;2023-02-11T01:14:02;21;20;
54869;PMS5003;40756;-37.950;145.008;2023-02-11T01:16:32;19;19;
54869;PMS5003;40756;-37.950;145.008;2023-02-11T01:19:01;19;17;
54869;PMS5003;40756;-37.950;145.008;2023-02-11T01:21:31;16;16;
54869;PMS5003;40756;-37.950;145.008;2023-02-11T01:24:00;18;16;
54869;PMS5003;40756;-37.950;145.008;2023-02-11T01:26:30;15;15;
54869;PMS5003;40756;-37.950;145.008;2023-02-11T01:29:00;13;13;
54869;PMS5003;40756;-37.950;145.008;2023-02-11T01:31:29;13;13;
54869;PMS5003;40756;-37.950;145.008;2023-02-11T01:33:59;15;13;
54869;PMS5003;40756;-37.950;145.008;2023-02-11T01:36:28;16;15;
54869;PMS5003;40756;-37.950;145.008;2023-02-11T01:38:58;13;13;
54869;PMS5003;40756;-37.950;145.008;2023-02-11T01:41:27;15;14;
54869;PMS5003;40756;-37.950;145.008;2023-02-11T01:43:57;12;12;
54869;PMS5003;40756;-37.950;145.008;2023-02-11T01:46:49;19;18;
54869;PMS5003;40756;-37.950;145.008;2023-02-11T01:49:20;14;14;
54869;PMS5003;40756;-37.950;145.008;2023-02-11T01:51:54;14;13;
54869;PMS5003;40756;-37.950;145.008;2023-02-11T01:54:29;16;16;
54869;PMS5003;40756;-37.950;145.008;2023-02-11T01:57:03;18;16;
54869;PMS5003;40756;-37.950;145.008;2023-02-11T01:59:35;17;16;
54869;PMS5003;40756;-37.950;145.008;2023-02-11T02:02:08;17;12;
54869;PMS5003;40756;-37.950;145.008;2023-02-11T02:04:43;13;13;
54869;PMS5003;40756;-37.950;145.008;2023-02-11T02:07:21;13;12;
54869;PMS5003;40756;-37.950;145.008;2023-02-11T02:09:59;13;12;
54869;PMS5003;40756;-37.950;145.008;2023-02-11T02:12:34;13;13;
54869;PMS5003;40756;-37.950;145.008;2023-02-11T02:15:20;13;12;
54869;PMS5003;40756;-37.950;145.008;2023-02-11T02:18:01;16;15;
54869;PMS5003;40756;-37.950;145.008;2023-02-11T02:20:47;16;16;
54869;PMS5003;40756;-37.950;145.008;2023-02-11T02:27:03;13;13;
54869;PMS5003;40756;-37.950;145.008;2023-02-11T02:29:55;45;45;
54869;PMS5003;40756;-37.950;145.008;2023-02-11T02:31:12;39;39;
54869;PMS5003;40756;-37.950;145.008;2023-02-11T02:33:59;36;35;
54869;PMS5003;40756;-37.950;145.008;2023-02-11T02:36:33;27;27;
54869;PMS5003;40756;-37.950;145.008;2023-02-11T02:39:09;25;24;
54869;PMS5003;40756;-37.950;145.008;2023-02-11T02:41:45;62;62;
54869;PMS5003;40756;-37.950;145.008;2023-02-11T02:44:17;83;83;
54869;PMS5003;40756;-37.950;145.008;2023-02-11T02:46:47;51;50;
54869;PMS5003;40756;-37.950;145.008;2023-02-11T02:49:17;13;13;
54869;PMS5003;40756;-37.950;145.008;2023-02-11T02:51:53;28;28;
54869;PMS5003;40756;-37.950;145.008;2023-02-11T02:54:40;18;18;
54869;PMS5003;40756;-37.950;145.008;2023-02-11T02:57:28;43;42;
54869;PMS5003;40756;-37.950;145.008;2023-02-11T03:00:13;16;14;
54869;PMS5003;40756;-37.950;145.008;2023-02-11T03:02:54;26;25;
54869;PMS5003;40756;-37.950;145.008;2023-02-11T03:05:35;18;17;
54869;PMS5003;40756;-37.950;145.008;2023-02-11T03:08:15;40;40;
54869;PMS5003;40756;-37.950;145.008;2023-02-11T03:10:51;16;15;
54869;PMS5003;40756;-37.950;145.008;2023-02-11T03:13:25;12;11;
54869;PMS5003;40756;-37.950;145.008;2023-02-11T03:15:58;12;10;
54869;PMS5003;40756;-37.950;145.008;2023-02-11T03:18:31;9;8;
54869;PMS5003;40756;-37.950;145.008;2023-02-11T03:21:03;10;8;
54869;PMS5003;40756;-37.950;145.008;2023-02-11T03:23:35;11;9;
54869;PMS5003;40756;-37.950;145.008;2023-02-11T03:26:10;10;10;
54869;PMS5003;40756;-37.950;145.008;2023-02-11T03:28:48;11;10;
54869;PMS5003;40756;-37.950;145.008;2023-02-11T03:31:26;10;9;
54869;PMS5003;40756;-37.950;145.008;2023-02-11T03:34:01;9;8;
54869;PMS5003;40756;-37.950;145.008;2023-02-11T03:36:37;9;9;
54869;PMS5003;40756;-37.950;145.008;2023-02-11T03:39:10;9;9;
54869;PMS5003;40756;-37.950;145.008;2023-02-11T03:41:43;10;10;
54869;PMS5003;40756;-37.950;145.008;2023-02-11T03:44:15;7;7;
54869;PMS5003;40756;-37.950;145.008;2023-02-11T03:46:47;10;10;
54869;PMS5003;40756;-37.950;145.008;2023-02-11T03:49:18;9;9;
54869;PMS5003;40756;-37.950;145.008;2023-02-11T03:51:54;8;7;
54869;PMS5003;40756;-37.950;145.008;2023-02-11T03:54:25;8;8;
54869;PMS5003;40756;-37.950;145.008;2023-02-11T03:56:57;7;6;
54869;PMS5003;40756;-37.950;145.008;2023-02-11T03:59:28;11;10;
54869;PMS5003;40756;-37.950;145.008;2023-02-11T04:01:58;9;9;
54869;PMS5003;40756;-37.950;145.008;2023-02-11T04:04:27;13;11;
54869;PMS5003;40756;-37.950;145.008;2023-02-11T04:06:57;10;10;
54869;PMS5003;40756;-37.950;145.008;2023-02-11T04:09:27;10;9;
54869;PMS5003;40756;-37.950;145.008;2023-02-11T04:11:56;14;13;
54869;PMS5003;40756;-37.950;145.008;2023-02-11T04:14:25;14;14;
54869;PMS5003;40756;-37.950;145.008;2023-02-11T04:16:54;11;10;
54869;PMS5003;40756;-37.950;145.008;2023-02-11T04:19:24;11;10;
54869;PMS5003;40756;-37.950;145.008;2023-02-11T04:21:53;11;11;
54869;PMS5003;40756;-37.950;145.008;2023-02-11T04:24:23;16;14;
54869;PMS5003;40756;-37.950;145.008;2023-02-11T04:26:52;14;13;
54869;PMS5003;40756;-37.950;145.008;2023-02-11T04:29:23;11;11;
54869;PMS5003;40756;-37.950;145.008;2023-02-11T04:31:53;13;11;
54869;PMS5003;40756;-37.950;145.008;2023-02-11T04:34:22;14;13;
54869;PMS5003;40756;-37.950;145.008;2023-02-11T04:36:52;10;10;
54869;PMS5003;40756;-37.950;145.008;2023-02-11T04:39:21;10;10;
54869;PMS5003;40756;-37.950;145.008;2023-02-11T04:41:51;11;11;
54869;PMS5003;40756;-37.950;145.008;2023-02-11T04:44:20;13;12;
54869;PMS5003;40756;-37.950;145.008;2023-02-11T04:46:50;12;11;
54869;PMS5003;40756;-37.950;145.008;2023-02-11T04:49:23;14;13;
54869;PMS5003;40756;-37.950;145.008;2023-02-11T04:51:52;10;10;
54869;PMS5003;40756;-37.950;145.008;2023-02-11T04:54:22;11;10;
54869;PMS5003;40756;-37.950;145.008;2023-02-11T04:56:51;13;12;
54869;PMS5003;40756;-37.950;145.008;2023-02-11T04:59:26;13;12;
54869;PMS5003;40756;-37.950;145.008;2023-02-11T05:01:57;10;9;
54869;PMS5003;40756;-37.950;145.008;2023-02-11T05:04:26;10;10;
54869;PMS5003;40756;-37.950;145.008;2023-02-11T05:06:56;12;11;
54869;PMS5003;40756;-37.950;145.008;2023-02-11T05:09:26;13;13;
54869;PMS5003;40756;-37.950;145.008;2023-02-11T05:11:55;9;8;
54869;PMS5003;40756;-37.950;145.008;2023-02-11T05:14:25;8;8;
54869;PMS5003;40756;-37.950;145.008;2023-02-11T05:16:54;7;7;
54869;PMS5003;40756;-37.950;145.008;2023-02-11T05:19:23;8;8;
54869;PMS5003;40756;-37.950;145.008;2023-02-11T05:21:53;9;8;
54869;PMS5003;40756;-37.950;145.008;2023-02-11T05:24:22;8;8;
54869;PMS5003;40756;-37.950;145.008;2023-02-11T05:26:51;9;9;
54869;PMS5003;40756;-37.950;145.008;2023-02-11T05:29:21;16;16;
54869;PMS5003;40756;-37.950;145.008;2023-02-11T05:31:51;45;45;
54869;PMS5003;40756;-37.950;145.008;2023-02-11T05:34:21;50;49;
54869;PMS5003;40756;-37.950;145.008;2023-02-11T05:36:50;84;83;
54869;PMS5003;40756;-37.950;145.008;2023-02-11T05:39:19;31;31;
54869;PMS5003;40756;-37.950;145.008;2023-02-11T05:41:49;30;29;
54869;PMS5003;40756;-37.950;145.008;2023-02-11T05:44:19;34;34;
54869;PMS5003;40756;-37.950;145.008;2023-02-11T05:46:49;32;31;
54869;PMS5003;40756;-37.950;145.008;2023-02-11T05:49:18;32;32;
54869;PMS5003;40756;-37.950;145.008;2023-02-11T05:51:47;20;20;
54869;PMS5003;40756;-37.950;145.008;2023-02-11T05:54:17;79;78;
54869;PMS5003;40756;-37.950;145.008;2023-02-11T05:56:46;19;18;
54869;PMS5003;40756;-37.950;145.008;2023-02-11T05:59:16;12;11;
54869;PMS5003;40756;-37.950;145.008;2023-02-11T06:01:45;10;9;
54869;PMS5003;40756;-37.950;145.008;2023-02-11T06:04:14;10;10;
54869;PMS5003;40756;-37.950;145.008;2023-02-11T06:06:44;11;10;
54869;PMS5003;40756;-37.950;145.008;2023-02-11T06:09:14;10;10;
54869;PMS5003;40756;-37.950;145.008;2023-02-11T06:11:43;11;11;
54869;PMS5003;40756;-37.950;145.008;2023-02-11T06:14:12;10;10;
54869;PMS5003;40756;-37.950;145.008;2023-02-11T06:16:42;12;12;
54869;PMS5003;40756;-37.950;145.008;2023-02-11T06:19:11;13;12;
54869;PMS5003;40756;-37.950;145.008;2023-02-11T06:21:41;12;11;
54869;PMS5003;40756;-37.950;145.008;2023-02-11T06:24:11;10;9;
54869;PMS5003;40756;-37.950;145.008;2023-02-11T06:26:40;11;11;
54869;PMS5003;40756;-37.950;145.008;2023-02-11T06:29:09;11;11;
54869;PMS5003;40756;-37.950;145.008;2023-02-11T06:31:39;14;14;
54869;PMS5003;40756;-37.950;145.008;2023-02-11T06:34:09;11;11;
54869;PMS5003;40756;-37.950;145.008;2023-02-11T06:36:39;7;7;
54869;PMS5003;40756;-37.950;145.008;2023-02-11T06:39:09;12;12;
54869;PMS5003;40756;-37.950;145.008;2023-02-11T06:41:38;12;10;
54869;PMS5003;40756;-37.950;145.008;2023-02-11T06:44:08;14;13;
54869;PMS5003;40756;-37.950;145.008;2023-02-11T06:46:37;12;11;
54869;PMS5003;40756;-37.950;145.008;2023-02-11T06:49:07;9;9;
54869;PMS5003;40756;-37.950;145.008;2023-02-11T06:51:37;13;12;
54869;PMS5003;40756;-37.950;145.008;2023-02-11T06:54:06;11;11;
54869;PMS5003;40756;-37.950;145.008;2023-02-11T06:56:39;11;11;
54869;PMS5003;40756;-37.950;145.008;2023-02-11T06:59:10;11;9;
54869;PMS5003;40756;-37.950;145.008;2023-02-11T07:01:43;10;10;
54869;PMS5003;40756;-37.950;145.008;2023-02-11T07:04:12;11;9;
54869;PMS5003;40756;-37.950;145.008;2023-02-11T07:06:42;7;7;
54869;PMS5003;40756;-37.950;145.008;2023-02-11T07:09:11;13;11;
54869;PMS5003;40756;-37.950;145.008;2023-02-11T07:11:42;11;9;
54869;PMS5003;40756;-37.950;145.008;2023-02-11T07:14:11;10;9;
54869;PMS5003;40756;-37.950;145.008;2023-02-11T07:16:41;10;10;
54869;PMS5003;40756;-37.950;145.008;2023-02-11T07:19:10;10;10;
54869;PMS5003;40756;-37.950;145.008;2023-02-11T07:21:39;10;9;
54869;PMS5003;40756;-37.950;145.008;2023-02-11T07:24:09;9;8;
54869;PMS5003;40756;-37.950;145.008;2023-02-11T07:26:39;9;7;
54869;PMS5003;40756;-37.950;145.008;2023-02-11T07:29:08;8;8;
54869;PMS5003;40756;-37.950;145.008;2023-02-11T07:31:38;13;12;
54869;PMS5003;40756;-37.950;145.008;2023-02-11T07:34:08;12;10;
54869;PMS5003;40756;-37.950;145.008;2023-02-11T07:36:39;10;8;
54869;PMS5003;40756;-37.950;145.008;2023-02-11T07:39:08;11;11;
54869;PMS5003;40756;-37.950;145.008;2023-02-11T07:41:38;16;15;
54869;PMS5003;40756;-37.950;145.008;2023-02-11T07:44:07;11;11;
54869;PMS5003;40756;-37.950;145.008;2023-02-11T07:46:36;12;11;
54869;PMS5003;40756;-37.950;145.008;2023-02-11T07:49:05;10;10;
54869;PMS5003;40756;-37.950;145.008;2023-02-11T07:51:35;12;11;
54869;PMS5003;40756;-37.950;145.008;2023-02-11T07:54:04;12;12;
54869;PMS5003;40756;-37.950;145.008;2023-02-11T07:56:34;11;11;
54869;PMS5003;40756;-37.950;145.008;2023-02-11T07:59:04;11;11;
54869;PMS5003;40756;-37.950;145.008;2023-02-11T08:01:33;26;25;
54869;PMS5003;40756;-37.950;145.008;2023-02-11T08:04:03;12;10;
54869;PMS5003;40756;-37.950;145.008;2023-02-11T08:06:33;11;11;
54869;PMS5003;40756;-37.950;145.008;2023-02-11T08:09:07;23;23;
54869;PMS5003;40756;-37.950;145.008;2023-02-11T08:11:42;11;11;
54869;PMS5003;40756;-37.950;145.008;2023-02-11T08:14:12;10;9;
54869;PMS5003;40756;-37.950;145.008;2023-02-11T08:16:41;10;10;
54869;PMS5003;40756;-37.950;145.008;2023-02-11T08:19:11;8;8;
54869;PMS5003;40756;-37.950;145.008;2023-02-11T08:21:43;10;9;
54869;PMS5003;40756;-37.950;145.008;2023-02-11T08:24:12;9;8;
54869;PMS5003;40756;-37.950;145.008;2023-02-11T08:26:42;12;10;
54869;PMS5003;40756;-37.950;145.008;2023-02-11T08:29:11;11;9;
54869;PMS5003;40756;-37.950;145.008;2023-02-11T08:31:43;8;8;
54869;PMS5003;40756;-37.950;145.008;2023-02-11T08:34:14;9;9;
54869;PMS5003;40756;-37.950;145.008;2023-02-11T08:36:43;10;10;
54869;PMS5003;40756;-37.950;145.008;2023-02-11T08:39:14;11;10;
54869;PMS5003;40756;-37.950;145.008;2023-02-11T08:41:46;11;11;
54869;PMS5003;40756;-37.950;145.008;2023-02-11T08:44:16;12;11;
54869;PMS5003;40756;-37.950;145.008;2023-02-11T08:46:46;9;9;
54869;PMS5003;40756;-37.950;145.008;2023-02-11T08:49:16;12;11;
54869;PMS5003;40756;-37.950;145.008;2023-02-11T08:51:47;11;11;
54869;PMS5003;40756;-37.950;145.008;2023-02-11T08:54:17;10;10;
54869;PMS5003;40756;-37.950;145.008;2023-02-11T08:56:49;11;11;
54869;PMS5003;40756;-37.950;145.008;2023-02-11T08:59:18;14;13;
54869;PMS5003;40756;-37.950;145.008;2023-02-11T09:01:48;14;13;
54869;PMS5003;40756;-37.950;145.008;2023-02-11T09:04:18;13;13;
54869;PMS5003;40756;-37.950;145.008;2023-02-11T09:06:47;13;13;
54869;PMS5003;40756;-37.950;145.008;2023-02-11T09:09:17;14;12;
54869;PMS5003;40756;-37.950;145.008;2023-02-11T09:11:47;9;9;
54869;PMS5003;40756;-37.950;145.008;2023-02-11T09:14:18;9;9;
54869;PMS5003;40756;-37.950;145.008;2023-02-11T09:16:49;13;12;
54869;PMS5003;40756;-37.950;145.008;2023-02-11T09:19:19;10;10;
54869;PMS5003;40756;-37.950;145.008;2023-02-11T09:21:48;9;9;
54869;PMS5003;40756;-37.950;145.008;2023-02-11T09:24:18;13;12;
54869;PMS5003;40756;-37.950;145.008;2023-02-11T09:26:47;11;10;
54869;PMS5003;40756;-37.950;145.008;2023-02-11T09:29:16;12;12;
54869;PMS5003;40756;-37.950;145.008;2023-02-11T09:31:46;13;12;
54869;PMS5003;40756;-37.950;145.008;2023-02-11T09:34:16;7;7;
54869;PMS5003;40756;-37.950;145.008;2023-02-11T09:36:46;11;9;
54869;PMS5003;40756;-37.950;145.008;2023-02-11T09:39:16;8;8;
54869;PMS5003;40756;-37.950;145.008;2023-02-11T09:41:52;12;12;
54869;PMS5003;40756;-37.950;145.008;2023-02-11T09:44:34;9;9;
54869;PMS5003;40756;-37.950;145.008;2023-02-11T09:47:06;11;11;
54869;PMS5003;40756;-37.950;145.008;2023-02-11T09:49:51;12;11;
54869;PMS5003;40756;-37.950;145.008;2023-02-11T09:52:28;12;11;
54869;PMS5003;40756;-37.950;145.008;2023-02-11T09:55:04;10;10;
54869;PMS5003;40756;-37.950;145.008;2023-02-11T09:57:43;12;8;
54869;PMS5003;40756;-37.950;145.008;2023-02-11T10:00:17;10;10;
54869;PMS5003;40756;-37.950;145.008;2023-02-11T10:02:55;11;11;
54869;PMS5003;40756;-37.950;145.008;2023-02-11T10:05:39;9;9;
54869;PMS5003;40756;-37.950;145.008;2023-02-11T10:08:21;7;7;
54869;PMS5003;40756;-37.950;145.008;2023-02-11T10:11:00;10;10;
54869;PMS5003;40756;-37.950;145.008;2023-02-11T10:13:38;11;10;
54869;PMS5003;40756;-37.950;145.008;2023-02-11T10:16:22;9;8;
54869;PMS5003;40756;-37.950;145.008;2023-02-11T10:19:07;8;8;
54869;PMS5003;40756;-37.950;145.008;2023-02-11T10:21:50;10;10;
54869;PMS5003;40756;-37.950;145.008;2023-02-11T10:24:25;10;9;
54869;PMS5003;40756;-37.950;145.008;2023-02-11T10:26:55;12;11;
54869;PMS5003;40756;-37.950;145.008;2023-02-11T10:29:28;10;9;
54869;PMS5003;40756;-37.950;145.008;2023-02-11T10:32:04;11;9;
54869;PMS5003;40756;-37.950;145.008;2023-02-11T10:34:43;11;10;
54869;PMS5003;40756;-37.950;145.008;2023-02-11T10:37:12;8;8;
54869;PMS5003;40756;-37.950;145.008;2023-02-11T10:39:42;11;10;
54869;PMS5003;40756;-37.950;145.008;2023-02-11T10:42:11;12;11;
54869;PMS5003;40756;-37.950;145.008;2023-02-11T10:44:42;11;9;
54869;PMS5003;40756;-37.950;145.008;2023-02-11T10:47:24;8;8;
54869;PMS5003;40756;-37.950;145.008;2023-02-11T10:49:58;12;10;
54869;PMS5003;40756;-37.950;145.008;2023-02-11T10:52:28;8;7;
54869;PMS5003;40756;-37.950;145.008;2023-02-11T10:54:59;9;9;
54869;PMS5003;40756;-37.950;145.008;2023-02-11T10:57:33;10;7;
54869;PMS5003;40756;-37.950;145.008;2023-02-11T11:00:20;9;9;
54869;PMS5003;40756;-37.950;145.008;2023-02-11T11:02:58;9;9;
54869;PMS5003;40756;-37.950;145.008;2023-02-11T11:05:30;10;9;
54869;PMS5003;40756;-37.950;145.008;2023-02-11T11:08:03;10;9;
54869;PMS5003;40756;-37.950;145.008;2023-02-11T11:10:37;8;8;
54869;PMS5003;40756;-37.950;145.008;2023-02-11T11:13:33;14;12;
54869;PMS5003;40756;-37.950;145.008;2023-02-11T11:16:07;10;10;
54869;PMS5003;40756;-37.950;145.008;2023-02-11T11:19:07;8;8;
54869;PMS5003;40756;-37.950;145.008;2023-02-11T11:21:47;10;10;
54869;PMS5003;40756;-37.950;145.008;2023-02-11T11:24:18;9;8;
54869;PMS5003;40756;-37.950;145.008;2023-02-11T11:26:51;8;8;
54869;PMS5003;40756;-37.950;145.008;2023-02-11T11:29:23;8;7;
54869;PMS5003;40756;-37.950;145.008;2023-02-11T11:32:00;8;7;
54869;PMS5003;40756;-37.950;145.008;2023-02-11T11:34:33;7;6;
54869;PMS5003;40756;-37.950;145.008;2023-02-11T11:37:11;7;7;
54869;PMS5003;40756;-37.950;145.008;2023-02-11T11:39:48;9;9;
54869;PMS5003;40756;-37.950;145.008;2023-02-11T11:42:25;7;7;
54869;PMS5003;40756;-37.950;145.008;2023-02-11T11:44:58;7;7;
54869;PMS5003;40756;-37.950;145.008;2023-02-11T11:47:32;8;7;
54869;PMS5003;40756;-37.950;145.008;2023-02-11T11:50:15;5;5;
54869;PMS5003;40756;-37.950;145.008;2023-02-11T11:52:53;10;8;
54869;PMS5003;40756;-37.950;145.008;2023-02-11T11:55:30;4;4;
54869;PMS5003;40756;-37.950;145.008;2023-02-11T11:58:05;5;5;
54869;PMS5003;40756;-37.950;145.008;2023-02-11T12:00:46;5;5;
54869;PMS5003;40756;-37.950;145.008;2023-02-11T12:03:49;7;6;
54869;PMS5003;40756;-37.950;145.008;2023-02-11T12:06:36;6;5;
54869;PMS5003;40756;-37.950;145.008;2023-02-11T12:09:16;4;4;
54869;PMS5003;40756;-37.950;145.008;2023-02-11T12:11:56;6;5;
54869;PMS5003;40756;-37.950;145.008;2023-02-11T12:14:42;4;4;
54869;PMS5003;40756;-37.950;145.008;2023-02-11T12:17:25;5;4;
54869;PMS5003;40756;-37.950;145.008;2023-02-11T12:20:11;4;4;
54869;PMS5003;40756;-37.950;145.008;2023-02-11T12:22:53;3;3;
54869;PMS5003;40756;-37.950;145.008;2023-02-11T12:25:33;3;3;
54869;PMS5003;40756;-37.950;145.008;2023-02-11T12:28:13;4;3;
54869;PMS5003;40756;-37.950;145.008;2023-02-11T12:30:55;4;3;
54869;PMS5003;40756;-37.950;145.008;2023-02-11T12:33:42;2;2;
54869;PMS5003;40756;-37.950;145.008;2023-02-11T12:36:29;5;4;
54869;PMS5003;40756;-37.950;145.008;2023-02-11T12:39:14;4;4;
54869;PMS5003;40756;-37.950;145.008;2023-02-11T12:42:02;4;4;
54869;PMS5003;40756;-37.950;145.008;2023-02-11T12:44:48;3;3;
54869;PMS5003;40756;-37.950;145.008;2023-02-11T12:47:31;5;4;
54869;PMS5003;40756;-37.950;145.008;2023-02-11T12:50:13;4;4;
54869;PMS5003;40756;-37.950;145.008;2023-02-11T12:52:57;4;4;
54869;PMS5003;40756;-37.950;145.008;2023-02-11T12:55:41;5;4;
54869;PMS5003;40756;-37.950;145.008;2023-02-11T12:58:15;5;5;
54869;PMS5003;40756;-37.950;145.008;2023-02-11T13:00:50;4;4;
54869;PMS5003;40756;-37.950;145.008;2023-02-11T13:03:22;5;4;
54869;PMS5003;40756;-37.950;145.008;2023-02-11T13:05:57;5;4;
54869;PMS5003;40756;-37.950;145.008;2023-02-11T13:08:31;6;6;
54869;PMS5003;40756;-37.950;145.008;2023-02-11T13:11:06;6;6;
54869;PMS5003;40756;-37.950;145.008;2023-02-11T13:13:43;5;5;
54869;PMS5003;40756;-37.950;145.008;2023-02-11T13:16:19;4;4;
54869;PMS5003;40756;-37.950;145.008;2023-02-11T13:18:59;7;6;
54869;PMS5003;40756;-37.950;145.008;2023-02-11T13:21:45;3;3;
54869;PMS5003;40756;-37.950;145.008;2023-02-11T13:24:24;5;4;
54869;PMS5003;40756;-37.950;145.008;2023-02-11T13:27:03;6;6;
54869;PMS5003;40756;-37.950;145.008;2023-02-11T13:29:53;3;3;
54869;PMS5003;40756;-37.950;145.008;2023-02-11T13:33:40;5;4;
54869;PMS5003;40756;-37.950;145.008;2023-02-11T13:36:12;4;4;
54869;PMS5003;40756;-37.950;145.008;2023-02-11T13:38:55;5;4;
54869;PMS5003;40756;-37.950;145.008;2023-02-11T13:41:29;5;5;
54869;PMS5003;40756;-37.950;145.008;2023-02-11T13:44:03;5;5;
54869;PMS5003;40756;-37.950;145.008;2023-02-11T13:46:48;4;4;
54869;PMS5003;40756;-37.950;145.008;2023-02-11T13:49:23;5;3;
54869;PMS5003;40756;-37.950;145.008;2023-02-11T13:51:57;5;5;
54869;PMS5003;40756;-37.950;145.008;2023-02-11T13:54:29;4;4;
54869;PMS5003;40756;-37.950;145.008;2023-02-11T13:57:36;6;5;
54869;PMS5003;40756;-37.950;145.008;2023-02-11T14:00:41;2;2;
54869;PMS5003;40756;-37.950;145.008;2023-02-11T14:03:30;5;4;
54869;PMS5003;40756;-37.950;145.008;2023-02-11T14:06:09;4;4;
54869;PMS5003;40756;-37.950;145.008;2023-02-11T14:08:58;3;3;
54869;PMS5003;40756;-37.950;145.008;2023-02-11T14:11:43;4;3;
54869;PMS5003;40756;-37.950;145.008;2023-02-11T14:14:18;2;2;
54869;PMS5003;40756;-37.950;145.008;2023-02-11T14:17:55;3;2;
54869;PMS5003;40756;-37.950;145.008;2023-02-11T14:20:33;6;5;
54869;PMS5003;40756;-37.950;145.008;2023-02-11T14:23:15;5;4;
54869;PMS5003;40756;-37.950;145.008;2023-02-11T14:25:53;5;5;
54869;PMS5003;40756;-37.950;145.008;2023-02-11T14:28:37;4;4;
54869;PMS5003;40756;-37.950;145.008;2023-02-11T14:31:09;6;4;
54869;PMS5003;40756;-37.950;145.008;2023-02-11T14:33:59;3;3;
54869;PMS5003;40756;-37.950;145.008;2023-02-11T14:36:45;7;5;
54869;PMS5003;40756;-37.950;145.008;2023-02-11T14:39:31;5;4;
54869;PMS5003;40756;-37.950;145.008;2023-02-11T14:42:15;4;3;
54869;PMS5003;40756;-37.950;145.008;2023-02-11T14:44:48;6;5;
54869;PMS5003;40756;-37.950;145.008;2023-02-11T14:47:22;6;6;
54869;PMS5003;40756;-37.950;145.008;2023-02-11T14:49:56;5;4;
54869;PMS5003;40756;-37.950;145.008;2023-02-11T14:52:26;4;4;
54869;PMS5003;40756;-37.950;145.008;2023-02-11T14:55:01;5;4;
54869;PMS5003;40756;-37.950;145.008;2023-02-11T14:57:42;5;5;
54869;PMS5003;40756;-37.950;145.008;2023-02-11T15:00:15;5;5;
54869;PMS5003;40756;-37.950;145.008;2023-02-11T15:02:49;6;5;
54869;PMS5003;40756;-37.950;145.008;2023-02-11T15:05:20;4;3;
54869;PMS5003;40756;-37.950;145.008;2023-02-11T15:07:52;5;5;
54869;PMS5003;40756;-37.950;145.008;2023-02-11T15:10:27;5;5;
54869;PMS5003;40756;-37.950;145.008;2023-02-11T15:13:00;4;4;
54869;PMS5003;40756;-37.950;145.008;2023-02-11T15:15:32;6;5;
54869;PMS5003;40756;-37.950;145.008;2023-02-11T15:18:03;8;7;
54869;PMS5003;40756;-37.950;145.008;2023-02-11T15:20:33;4;4;
54869;PMS5003;40756;-37.950;145.008;2023-02-11T15:23:04;5;5;
54869;PMS5003;40756;-37.950;145.008;2023-02-11T15:25:42;7;6;
54869;PMS5003;40756;-37.950;145.008;2023-02-11T15:28:18;4;4;
54869;PMS5003;40756;-37.950;145.008;2023-02-11T15:30:56;5;5;
54869;PMS5003;40756;-37.950;145.008;2023-02-11T15:33:27;5;4;
54869;PMS5003;40756;-37.950;145.008;2023-02-11T15:35:58;5;4;
54869;PMS5003;40756;-37.950;145.008;2023-02-11T15:38:28;6;6;
54869;PMS5003;40756;-37.950;145.008;2023-02-11T15:40:58;3;3;
54869;PMS5003;40756;-37.950;145.008;2023-02-11T15:43:47;4;3;
54869;PMS5003;40756;-37.950;145.008;2023-02-11T15:46:18;5;5;
54869;PMS5003;40756;-37.950;145.008;2023-02-11T15:48:50;5;4;
54869;PMS5003;40756;-37.950;145.008;2023-02-11T15:51:22;4;4;
54869;PMS5003;40756;-37.950;145.008;2023-02-11T15:53:55;4;4;
54869;PMS5003;40756;-37.950;145.008;2023-02-11T15:56:27;5;5;
54869;PMS5003;40756;-37.950;145.008;2023-02-11T15:59:07;5;3;
54869;PMS5003;40756;-37.950;145.008;2023-02-11T16:03:16;5;4;
54869;PMS5003;40756;-37.950;145.008;2023-02-11T16:05:49;4;4;
54869;PMS5003;40756;-37.950;145.008;2023-02-11T16:08:20;8;6;
54869;PMS5003;40756;-37.950;145.008;2023-02-11T16:10:55;4;4;
54869;PMS5003;40756;-37.950;145.008;2023-02-11T16:13:26;7;5;
54869;PMS5003;40756;-37.950;145.008;2023-02-11T16:15:56;6;5;
54869;PMS5003;40756;-37.950;145.008;2023-02-11T16:18:31;4;3;
54869;PMS5003;40756;-37.950;145.008;2023-02-11T16:21:04;3;2;
54869;PMS5003;40756;-37.950;145.008;2023-02-11T16:23:42;4;4;
54869;PMS5003;40756;-37.950;145.008;2023-02-11T16:26:20;3;3;
54869;PMS5003;40756;-37.950;145.008;2023-02-11T16:28:53;2;2;
54869;PMS5003;40756;-37.950;145.008;2023-02-11T16:31:34;3;2;
54869;PMS5003;40756;-37.950;145.008;2023-02-11T16:34:10;4;3;